Salt Lake City, Utah
Current Conditions -  °F | °C
As of 7:53 PM on Friday 24 Oct 2014 (Local Time) from KSLC Reporting Station
Clear Clear  
Wind Chill: 14°   Ceiling: Unl
Heat Index: 14°   Visibility: 10mi
Dew Point:   Wind: 3mph
Humidity: 51%   Direction: 250°WSW
Pressure: 30.08"   Gusts: NA
Location:  40.76°N, 111.88°W
Report Text: KSLC 250153Z 25003KT 10SM CLR 14/04 A3008 RMK AO2 SLP167 T01440044
Loading
Personal Weather Stations






























Interactive Weather Map
Tropical Storm Tracking
New forecast layout! Learn more

10-Day Weather Forecast

Advertisements
Track Severe Weather on mobile